Gibsonton, Florida
Current Conditions -  °F | °C
As of 12:58 AM on Friday 19 Dec 2014 (Local Time) from KMCF Reporting Station
Clear Clear  
Wind Chill:   Ceiling: Unl
Heat Index: 10°   Visibility: 10mi
Dew Point: 10°   Wind: 5mph
Humidity: 99%   Direction: 10°N
Pressure: 30.13"   Gusts: NA
Location:  27.85°N, 82.38°W
Report Text: KMCF 190558Z AUTO 01004KT 10SM CLR 10/10 A3013 RMK AO2 SLP206 T00990097 10135 20085 58002 $
Loading
Personal Weather Stations






























Interactive Weather Map New forecast layout! Learn more

10-Day Weather Forecast

Advertisements
Track Severe Weather on mobile